createdAt,value
2024-04-08T00:50:28.992Z,14.33
2024-04-08T00:52:56.272Z,14.24
2024-04-08T00:55:23.846Z,14.27
2024-04-08T00:57:51.147Z,14.27
2024-04-08T01:00:17.676Z,14.24
2024-04-08T01:02:44.345Z,14.24
2024-04-08T01:05:15.047Z,14.18
2024-04-08T01:07:47.064Z,14.11
2024-04-08T01:10:14.248Z,14.19
2024-04-08T01:12:44.081Z,14.25
2024-04-08T01:15:11.223Z,14.28
2024-04-08T01:17:37.806Z,14.34
2024-04-08T01:20:04.815Z,14.28
2024-04-08T01:22:32.522Z,14.28
2024-04-08T01:24:59.905Z,14.11
2024-04-08T01:27:27.226Z,14.21
2024-04-08T01:29:54.000Z,14.26
2024-04-08T01:32:20.757Z,14.26
2024-04-08T01:34:47.267Z,14.24
2024-04-08T01:37:13.764Z,14.22
2024-04-08T01:39:40.569Z,14.14
2024-04-08T01:42:07.129Z,14.17
2024-04-08T01:44:33.691Z,14.44
2024-04-08T01:47:00.333Z,14.52
2024-04-08T01:49:29.064Z,14.51
2024-04-08T01:51:55.662Z,14.57
2024-04-08T01:54:22.657Z,14.59
2024-04-08T01:56:58.214Z,14.57
2024-04-08T01:59:24.756Z,14.44
2024-04-08T02:01:51.261Z,14.52
2024-04-08T02:04:17.749Z,14.58
2024-04-08T02:06:44.222Z,14.61
2024-04-08T02:09:10.710Z,14.64
2024-04-08T02:11:37.475Z,14.67
2024-04-08T02:14:04.097Z,14.50
2024-04-08T02:16:31.149Z,14.57
2024-04-08T02:18:57.659Z,14.43
2024-04-08T02:21:24.170Z,14.52
2024-04-08T02:23:50.710Z,14.58
2024-04-08T02:26:17.204Z,14.62
2024-04-08T02:28:43.694Z,14.69
2024-04-08T02:31:10.231Z,14.70
2024-04-08T02:33:36.833Z,14.70
2024-04-08T02:36:06.066Z,14.60
2024-04-08T02:38:34.216Z,14.66
2024-04-08T02:41:01.323Z,14.66
2024-04-08T02:43:27.950Z,14.68
2024-04-08T02:45:54.489Z,14.69
2024-04-08T02:48:21.973Z,14.60
2024-04-08T02:50:49.051Z,14.49
2024-04-08T02:53:15.677Z,14.34
2024-04-08T02:55:42.184Z,14.43
2024-04-08T02:58:08.742Z,14.45
2024-04-08T03:00:41.602Z,14.51
2024-04-08T03:03:08.166Z,14.42
2024-04-08T03:05:34.723Z,14.40
2024-04-08T03:08:01.562Z,14.39
2024-04-08T03:10:28.097Z,14.40
2024-04-08T03:12:54.938Z,14.40
2024-04-08T03:15:21.485Z,14.41
2024-04-08T03:17:48.267Z,14.41
2024-04-08T03:20:14.972Z,14.31
2024-04-08T03:22:41.617Z,14.49
2024-04-08T03:25:08.392Z,14.51
2024-04-08T03:27:35.008Z,14.46
2024-04-08T03:30:01.574Z,14.43
2024-04-08T03:32:28.110Z,14.38
2024-04-08T03:34:54.633Z,14.31
2024-04-08T03:37:27.548Z,14.27
2024-04-08T03:39:54.054Z,14.24
2024-04-08T03:42:22.526Z,14.30
2024-04-08T03:44:49.938Z,14.29
2024-04-08T03:47:16.753Z,14.36
2024-04-08T03:49:43.823Z,14.39
2024-04-08T03:52:10.333Z,14.40
2024-04-08T03:54:36.903Z,14.33
2024-04-08T03:57:03.625Z,14.30
2024-04-08T03:59:30.175Z,14.45
2024-04-08T04:01:58.793Z,14.51
2024-04-08T04:04:25.639Z,14.56
2024-04-08T04:06:52.184Z,14.55
2024-04-08T04:09:18.906Z,14.55
2024-04-08T04:11:45.436Z,14.54
2024-04-08T04:14:12.014Z,14.55
2024-04-08T04:16:38.497Z,14.49
2024-04-08T04:19:05.073Z,14.47
2024-04-08T04:21:31.591Z,14.49
2024-04-08T04:23:58.120Z,14.36
2024-04-08T04:26:24.662Z,14.53
2024-04-08T04:28:51.148Z,14.55
2024-04-08T04:31:17.914Z,14.54
2024-04-08T04:33:44.435Z,14.56
2024-04-08T04:36:10.968Z,14.40
2024-04-08T04:38:37.508Z,14.52
2024-04-08T04:41:06.955Z,14.40
2024-04-08T04:43:34.042Z,14.49
2024-04-08T04:46:00.875Z,14.50
2024-04-08T04:48:27.754Z,14.53
2024-04-08T04:50:54.772Z,14.60
2024-04-08T04:53:21.902Z,14.55
2024-04-08T04:55:54.722Z,14.40
2024-04-08T04:58:24.519Z,14.54
2024-04-08T05:00:51.573Z,14.55
2024-04-08T05:03:19.996Z,14.59
2024-04-08T05:05:57.384Z,14.56
2024-04-08T05:08:24.724Z,14.50
2024-04-08T05:10:51.590Z,14.41
2024-04-08T05:13:19.397Z,14.52
2024-04-08T05:16:15.561Z,14.57
2024-04-08T05:18:42.066Z,14.57
2024-04-08T05:21:10.459Z,14.58
2024-04-08T05:23:37.001Z,14.60
2024-04-08T05:26:04.332Z,14.60
2024-04-08T05:28:30.947Z,14.62
2024-04-08T05:30:57.545Z,14.68
2024-04-08T05:33:24.194Z,14.65
2024-04-08T05:35:50.790Z,14.67
2024-04-08T05:38:17.426Z,14.65
2024-04-08T05:40:44.053Z,14.64
2024-04-08T05:43:15.834Z,14.56
2024-04-08T05:45:43.094Z,14.55
2024-04-08T05:48:10.182Z,14.73
2024-04-08T05:50:36.760Z,14.78
2024-04-08T05:53:03.349Z,14.76
2024-04-08T05:55:31.866Z,14.79
2024-04-08T05:57:58.537Z,14.72
2024-04-08T06:00:25.297Z,14.74
2024-04-08T06:02:53.448Z,14.61
2024-04-08T06:05:21.273Z,14.64
2024-04-08T06:07:50.531Z,14.70
2024-04-08T06:10:18.353Z,14.68
2024-04-08T06:12:45.619Z,14.61
2024-04-08T06:15:13.993Z,14.60
2024-04-08T06:17:40.592Z,14.53
2024-04-08T06:20:07.779Z,14.69
2024-04-08T06:22:36.528Z,14.61
2024-04-08T06:25:04.025Z,14.64
2024-04-08T06:27:30.894Z,14.63
2024-04-08T06:29:57.537Z,14.67
2024-04-08T06:32:24.619Z,14.69
2024-04-08T06:34:51.165Z,14.49
2024-04-08T06:37:17.715Z,14.69
2024-04-08T06:39:44.306Z,14.57
2024-04-08T06:42:18.240Z,14.77
2024-04-08T06:44:49.005Z,14.84
2024-04-08T06:47:15.741Z,14.99
2024-04-08T06:49:43.206Z,15.10
2024-04-08T06:52:09.715Z,14.94
2024-04-08T06:54:36.340Z,14.94
2024-04-08T06:57:03.107Z,14.94
2024-04-08T06:59:29.763Z,15.02
2024-04-08T07:01:56.889Z,15.12
2024-04-08T07:04:23.711Z,15.01
2024-04-08T07:06:50.333Z,14.91
2024-04-08T07:09:16.825Z,14.73
2024-04-08T07:11:44.183Z,14.82
2024-04-08T07:14:10.725Z,14.74
2024-04-08T07:16:37.374Z,14.85
2024-04-08T07:19:04.245Z,14.91
2024-04-08T07:21:30.736Z,15.03
2024-04-08T07:23:57.265Z,15.26
2024-04-08T07:26:23.841Z,15.42
2024-04-08T07:28:52.045Z,15.62
2024-04-08T07:31:19.132Z,15.83
2024-04-08T07:33:45.699Z,15.87
2024-04-08T07:36:12.202Z,16.00
2024-04-08T07:38:52.564Z,15.91
2024-04-08T07:41:25.267Z,16.11
2024-04-08T07:43:51.787Z,16.15
2024-04-08T07:46:18.366Z,16.19
2024-04-08T07:48:46.866Z,16.14
2024-04-08T07:51:13.766Z,16.20
2024-04-08T07:53:40.358Z,16.23
2024-04-08T07:56:06.899Z,16.26
2024-04-08T07:58:34.877Z,16.34
2024-04-08T08:01:01.490Z,16.26
2024-04-08T08:03:28.272Z,16.35
2024-04-08T08:05:55.983Z,16.58
2024-04-08T08:08:26.208Z,16.71
2024-04-08T08:10:53.476Z,16.97
2024-04-08T08:13:20.202Z,17.19
2024-04-08T08:15:56.868Z,17.43
2024-04-08T08:18:23.905Z,17.61
2024-04-08T08:20:51.790Z,17.72
2024-04-08T08:23:18.504Z,17.91
2024-04-08T08:25:47.011Z,18.09
2024-04-08T08:28:13.655Z,18.34
2024-04-08T08:30:41.581Z,18.52
2024-04-08T08:33:08.460Z,18.57
2024-04-08T08:35:35.073Z,18.75
2024-04-08T08:38:01.587Z,18.83
2024-04-08T08:40:28.528Z,19.04
2024-04-08T08:42:57.170Z,18.98
2024-04-08T08:45:24.284Z,19.09
2024-04-08T08:47:50.925Z,19.29
2024-04-08T08:50:17.573Z,19.41
2024-04-08T08:52:44.429Z,19.34
2024-04-08T08:55:11.547Z,19.38
2024-04-08T08:57:39.027Z,19.46
2024-04-08T09:00:07.171Z,19.39
2024-04-08T09:02:36.131Z,19.46
2024-04-08T09:05:02.827Z,19.66
2024-04-08T09:07:29.317Z,19.90
2024-04-08T09:09:57.313Z,19.93
2024-04-08T09:12:24.230Z,20.22
2024-04-08T09:14:52.548Z,20.44
2024-04-08T09:17:20.019Z,20.52
2024-04-08T09:19:46.593Z,20.39
2024-04-08T09:22:13.230Z,20.39
2024-04-08T09:24:40.242Z,20.67
2024-04-08T09:27:07.248Z,20.55
2024-04-08T09:29:34.025Z,20.34
2024-04-08T09:32:01.973Z,20.16
2024-04-08T09:34:30.134Z,19.97
2024-04-08T09:36:57.208Z,19.82
2024-04-08T09:39:25.127Z,19.66
2024-04-08T09:41:53.125Z,19.46
2024-04-08T09:44:20.871Z,19.39
2024-04-08T09:46:48.339Z,19.32
2024-04-08T09:49:21.514Z,19.22
2024-04-08T09:51:53.236Z,19.40
2024-04-08T09:54:22.647Z,19.50
2024-04-08T09:56:56.985Z,19.63
2024-04-08T09:59:25.721Z,19.83
2024-04-08T10:01:55.059Z,19.87
2024-04-08T10:04:23.597Z,19.82
2024-04-08T10:06:50.960Z,20.20
2024-04-08T10:09:22.052Z,20.52
2024-04-08T10:11:53.008Z,20.61
2024-04-08T10:14:20.776Z,20.79
2024-04-08T10:16:53.682Z,20.95
2024-04-08T10:19:22.239Z,21.01
2024-04-08T10:21:53.398Z,21.07
2024-04-08T10:24:38.421Z,21.08
2024-04-08T10:27:09.375Z,21.20
2024-04-08T10:29:39.281Z,21.59
2024-04-08T10:32:07.691Z,21.68
2024-04-08T10:34:37.811Z,21.66
2024-04-08T10:37:04.664Z,21.83
2024-04-08T10:39:31.189Z,21.86
2024-04-08T10:42:15.311Z,22.03
2024-04-08T10:44:43.105Z,22.17
2024-04-08T10:47:10.299Z,22.36
2024-04-08T10:49:37.107Z,22.37
2024-04-08T10:52:04.000Z,22.48
2024-04-08T10:54:32.332Z,22.61
2024-04-08T10:56:58.851Z,22.57
2024-04-08T10:59:25.370Z,22.64
2024-04-08T11:01:51.928Z,22.80
2024-04-08T11:04:19.302Z,22.95
2024-04-08T11:06:46.198Z,23.10
2024-04-08T11:09:12.842Z,23.26
2024-04-08T11:11:39.418Z,23.35
2024-04-08T11:14:06.674Z,23.26
2024-04-08T11:16:33.707Z,22.90
2024-04-08T11:19:02.123Z,23.10
2024-04-08T11:21:28.905Z,22.84
2024-04-08T11:23:55.540Z,23.22
2024-04-08T11:26:23.277Z,23.23
2024-04-08T11:28:49.758Z,23.09
2024-04-08T11:31:16.261Z,22.97
2024-04-08T11:33:42.888Z,22.92
2024-04-08T11:36:09.812Z,22.52
2024-04-08T11:38:37.086Z,22.68
2024-04-08T11:41:07.735Z,22.38
2024-04-08T11:43:35.284Z,22.32
2024-04-08T11:46:04.555Z,22.26
2024-04-08T11:48:32.071Z,22.36
2024-04-08T11:50:58.989Z,22.60
2024-04-08T11:53:25.591Z,22.94
2024-04-08T11:55:52.179Z,23.19
2024-04-08T11:58:18.692Z,23.83
2024-04-08T12:00:45.238Z,24.19
2024-04-08T12:03:11.792Z,24.64
2024-04-08T12:05:38.375Z,24.93
2024-04-08T12:08:05.098Z,25.53
2024-04-08T12:10:31.690Z,25.66
2024-04-08T12:13:14.592Z,25.46
2024-04-08T12:15:41.107Z,25.72
2024-04-08T12:18:08.054Z,26.13
2024-04-08T12:20:37.427Z,26.51
2024-04-08T12:23:04.091Z,26.60
2024-04-08T12:25:32.457Z,26.44
2024-04-08T12:28:00.302Z,26.33
2024-04-08T12:30:29.850Z,25.71
2024-04-08T12:32:56.406Z,25.76
2024-04-08T12:35:22.987Z,25.45
2024-04-08T12:37:49.723Z,24.99
2024-04-08T12:40:16.232Z,24.30
2024-04-08T12:42:42.737Z,23.94
2024-04-08T12:45:14.911Z,23.73
2024-04-08T12:47:42.583Z,23.17
2024-04-08T12:50:09.447Z,22.99
2024-04-08T12:52:36.350Z,22.56
2024-04-08T12:55:04.373Z,22.31
2024-04-08T12:57:31.254Z,22.23
2024-04-08T12:59:57.865Z,22.13
2024-04-08T13:02:27.008Z,22.14
2024-04-08T13:04:54.695Z,22.28
2024-04-08T13:07:22.269Z,22.39
2024-04-08T13:09:50.164Z,22.32
2024-04-08T13:12:16.868Z,22.14
2024-04-08T13:14:44.069Z,21.93
2024-04-08T13:17:10.843Z,21.95
2024-04-08T13:19:37.369Z,21.69
2024-04-08T13:22:04.498Z,21.54
2024-04-08T13:24:32.055Z,21.96
2024-04-08T13:26:58.770Z,22.24
2024-04-08T13:29:25.348Z,22.53
2024-04-08T13:31:52.079Z,22.87
2024-04-08T13:34:18.968Z,23.48
2024-04-08T13:36:45.766Z,23.65
2024-04-08T13:39:12.322Z,23.66
2024-04-08T13:41:39.766Z,23.78
2024-04-08T13:44:06.372Z,23.62
2024-04-08T13:46:33.433Z,23.45
2024-04-08T13:48:59.974Z,23.35
2024-04-08T13:51:26.531Z,23.08
2024-04-08T13:53:54.495Z,22.67
2024-04-08T13:56:21.346Z,22.59
2024-04-08T13:58:50.830Z,22.27
2024-04-08T14:01:18.030Z,22.25
2024-04-08T14:03:45.038Z,22.08
2024-04-08T14:06:13.690Z,21.99
2024-04-08T14:08:40.636Z,21.94
2024-04-08T14:11:07.316Z,21.91
2024-04-08T14:13:33.885Z,21.88
2024-04-08T14:16:00.406Z,21.91
2024-04-08T14:18:27.080Z,22.39
2024-04-08T14:20:53.638Z,22.53
2024-04-08T14:23:20.112Z,23.20
2024-04-08T14:25:46.605Z,23.63
2024-04-08T14:28:13.449Z,24.50
2024-04-08T14:30:40.058Z,24.74
2024-04-08T14:33:07.261Z,25.22
2024-04-08T14:35:34.115Z,25.43
2024-04-08T14:38:21.592Z,25.79
2024-04-08T14:40:47.280Z,25.23
2024-04-08T14:43:18.930Z,24.44
2024-04-08T14:45:52.687Z,24.59
2024-04-08T14:48:19.511Z,24.55
2024-04-08T14:50:47.727Z,24.61
2024-04-08T14:53:15.703Z,24.74
2024-04-08T14:55:43.302Z,25.08
2024-04-08T14:58:10.041Z,25.11
2024-04-08T15:00:36.739Z,24.73
2024-04-08T15:03:04.280Z,24.46
2024-04-08T15:05:31.354Z,24.39
2024-04-08T15:07:57.881Z,24.28
2024-04-08T15:10:25.265Z,23.90
2024-04-08T15:12:51.885Z,23.30
2024-04-08T15:15:18.511Z,23.03
2024-04-08T15:17:46.019Z,22.75
2024-04-08T15:20:12.710Z,22.72
2024-04-08T15:22:39.396Z,22.75
2024-04-08T15:25:06.043Z,22.55
2024-04-08T15:27:32.936Z,22.55
2024-04-08T15:30:00.006Z,22.28
2024-04-08T15:32:26.975Z,22.29
2024-04-08T15:34:53.627Z,22.27
2024-04-08T15:37:20.341Z,22.15
2024-04-08T15:39:46.854Z,21.89
2024-04-08T15:42:13.402Z,21.76
2024-04-08T15:44:39.974Z,21.84
2024-04-08T15:47:06.852Z,21.79
2024-04-08T15:49:33.363Z,21.77
2024-04-08T15:51:59.858Z,21.74
2024-04-08T15:54:26.951Z,21.83
2024-04-08T15:56:54.005Z,21.86
2024-04-08T15:59:20.883Z,21.78
2024-04-08T16:01:48.503Z,21.91
2024-04-08T16:04:15.457Z,21.81
2024-04-08T16:06:42.462Z,21.77
2024-04-08T16:09:10.088Z,21.77
2024-04-08T16:11:36.874Z,21.71
2024-04-08T16:14:03.466Z,21.62
2024-04-08T16:16:30.305Z,21.59
2024-04-08T16:18:57.074Z,21.55
2024-04-08T16:21:25.516Z,21.53
2024-04-08T16:23:55.730Z,21.42
2024-04-08T16:26:23.804Z,21.33
2024-04-08T16:29:02.823Z,21.35
2024-04-08T16:31:32.828Z,21.36
2024-04-08T16:34:01.008Z,21.34
2024-04-08T16:36:30.418Z,21.26
2024-04-08T16:38:58.103Z,21.30
2024-04-08T16:41:24.743Z,21.22
2024-04-08T16:43:51.412Z,21.13
2024-04-08T16:46:19.778Z,21.08
2024-04-08T16:48:46.479Z,21.02
2024-04-08T16:51:13.173Z,21.07
2024-04-08T16:53:41.253Z,21.04
2024-04-08T16:56:07.829Z,21.04
2024-04-08T16:58:34.361Z,20.88
2024-04-08T17:01:00.970Z,20.95
2024-04-08T17:03:29.290Z,20.90
2024-04-08T17:06:07.244Z,20.67
2024-04-08T17:08:34.101Z,20.69
2024-04-08T17:11:04.669Z,20.72
2024-04-08T17:13:32.189Z,20.74
2024-04-08T17:15:59.241Z,20.63
2024-04-08T17:18:26.740Z,20.53
2024-04-08T17:20:57.071Z,20.36
2024-04-08T17:23:26.415Z,20.45
2024-04-08T17:25:54.471Z,20.41
2024-04-08T17:28:21.112Z,20.44
2024-04-08T17:30:54.365Z,20.41
2024-04-08T17:33:21.167Z,20.26
2024-04-08T17:35:58.738Z,20.27
2024-04-08T17:38:26.199Z,20.18
2024-04-08T17:40:58.039Z,20.18
2024-04-08T17:43:24.549Z,20.13
2024-04-08T17:45:51.148Z,19.96
2024-04-08T17:48:17.896Z,19.89
2024-04-08T17:50:58.996Z,19.90
2024-04-08T17:53:29.775Z,19.85
2024-04-08T17:56:07.499Z,19.78
2024-04-08T17:58:35.942Z,19.58
2024-04-08T18:01:05.030Z,19.66
2024-04-08T18:03:32.500Z,19.52
2024-04-08T18:06:15.858Z,19.40
2024-04-08T18:08:45.387Z,19.27
2024-04-08T18:11:13.127Z,19.24
2024-04-08T18:13:40.671Z,19.15
2024-04-08T18:16:13.831Z,19.02
2024-04-08T18:18:45.474Z,18.98
2024-04-08T18:21:12.612Z,18.84
2024-04-08T18:23:39.461Z,18.82
2024-04-08T18:26:16.146Z,18.88
2024-04-08T18:28:43.651Z,18.84
2024-04-08T18:31:14.926Z,18.78
2024-04-08T18:33:42.657Z,18.61
2024-04-08T18:36:13.902Z,18.60
2024-04-08T18:38:40.892Z,18.62
2024-04-08T18:41:09.360Z,18.63
2024-04-08T18:43:37.938Z,18.42
2024-04-08T18:46:08.962Z,18.53
2024-04-08T18:48:36.089Z,18.48
2024-04-08T18:51:04.839Z,18.38
2024-04-08T18:53:31.801Z,18.32
2024-04-08T18:55:58.372Z,18.23
2024-04-08T18:58:24.945Z,18.23
2024-04-08T19:00:51.618Z,18.17
2024-04-08T19:03:18.464Z,18.04
2024-04-08T19:05:48.094Z,18.00
2024-04-08T19:08:16.246Z,17.91
2024-04-08T19:10:43.891Z,18.05
2024-04-08T19:13:10.844Z,17.90
2024-04-08T19:15:37.911Z,18.02
2024-04-08T19:18:05.215Z,18.01
2024-04-08T19:20:32.017Z,17.89
2024-04-08T19:22:58.536Z,17.94
2024-04-08T19:25:26.019Z,17.85
2024-04-08T19:27:55.503Z,17.69
2024-04-08T19:30:23.018Z,17.83
2024-04-08T19:32:50.195Z,17.74
2024-04-08T19:35:16.981Z,17.57
2024-04-08T19:37:44.536Z,17.57
2024-04-08T19:40:11.666Z,17.54
2024-04-08T19:42:38.252Z,17.47
2024-04-08T19:45:05.830Z,17.39
2024-04-08T19:47:34.335Z,17.38
2024-04-08T19:50:02.369Z,17.33
2024-04-08T19:52:29.355Z,17.27
2024-04-08T19:54:56.005Z,17.25
2024-04-08T19:57:22.641Z,17.08
2024-04-08T19:59:49.227Z,17.20
2024-04-08T20:02:15.786Z,17.13
2024-04-08T20:04:42.689Z,17.11
2024-04-08T20:07:09.219Z,17.11
2024-04-08T20:09:36.065Z,17.19
2024-04-08T20:12:02.701Z,17.17
2024-04-08T20:14:29.235Z,17.04
2024-04-08T20:16:55.797Z,17.19
2024-04-08T20:19:22.489Z,17.21
2024-04-08T20:21:49.839Z,16.92
2024-04-08T20:24:16.767Z,17.16
2024-04-08T20:26:43.484Z,17.09
2024-04-08T20:29:10.762Z,16.76
2024-04-08T20:31:37.267Z,16.98
2024-04-08T20:34:06.580Z,16.92
2024-04-08T20:36:33.765Z,16.85
2024-04-08T20:39:00.424Z,16.79
2024-04-08T20:41:26.977Z,16.66
2024-04-08T20:43:53.477Z,16.75
2024-04-08T20:46:20.222Z,16.72
2024-04-08T20:48:46.974Z,16.72
2024-04-08T20:51:13.729Z,16.70
2024-04-08T20:53:40.647Z,16.82
2024-04-08T20:56:08.836Z,16.65
2024-04-08T20:58:35.878Z,16.74
2024-04-08T21:01:06.633Z,16.64
2024-04-08T21:03:33.307Z,16.71
2024-04-08T21:06:04.943Z,16.59
2024-04-08T21:08:32.358Z,16.80
2024-04-08T21:11:02.723Z,16.76
2024-04-08T21:13:36.763Z,16.77
2024-04-08T21:16:06.089Z,16.80
2024-04-08T21:18:34.131Z,16.78
2024-04-08T21:21:05.910Z,16.80
2024-04-08T21:23:34.048Z,16.73
2024-04-08T21:26:10.832Z,16.78
2024-04-08T21:28:38.740Z,16.77
2024-04-08T21:31:06.099Z,16.76
2024-04-08T21:33:37.230Z,16.76
2024-04-08T21:36:05.030Z,16.71
2024-04-08T21:38:32.235Z,16.68
2024-04-08T21:41:09.294Z,16.55
2024-04-08T21:43:36.075Z,16.61
2024-04-08T21:46:04.446Z,16.64
2024-04-08T21:48:32.859Z,16.67
2024-04-08T21:51:00.976Z,16.62
2024-04-08T21:53:28.208Z,16.58
2024-04-08T21:56:00.283Z,16.56
2024-04-08T21:58:28.141Z,16.52
2024-04-08T22:00:56.570Z,16.36
2024-04-08T22:03:25.298Z,16.39
2024-04-08T22:05:52.224Z,16.41
2024-04-08T22:08:19.092Z,16.42
2024-04-08T22:10:46.020Z,16.30
2024-04-08T22:13:12.800Z,16.27
2024-04-08T22:15:39.852Z,16.26
2024-04-08T22:18:07.434Z,16.27
2024-04-08T22:20:34.416Z,16.28
2024-04-08T22:23:05.853Z,16.15
2024-04-08T22:25:32.798Z,16.11
2024-04-08T22:27:59.778Z,16.18
2024-04-08T22:30:26.431Z,16.24
2024-04-08T22:32:53.191Z,16.27
2024-04-08T22:35:20.565Z,16.22
2024-04-08T22:37:47.185Z,16.19
2024-04-08T22:40:13.698Z,16.13
2024-04-08T22:42:40.403Z,16.08
2024-04-08T22:45:07.317Z,16.01
2024-04-08T22:47:34.109Z,15.98
2024-04-08T22:50:00.658Z,15.96
2024-04-08T22:52:27.181Z,15.88
2024-04-08T22:54:53.720Z,16.01
2024-04-08T22:57:20.282Z,15.96
2024-04-08T22:59:46.782Z,15.93
2024-04-08T23:02:13.294Z,15.92
2024-04-08T23:04:40.422Z,15.91
2024-04-08T23:07:06.968Z,15.63
2024-04-08T23:09:34.185Z,15.84
2024-04-08T23:12:00.833Z,15.71
2024-04-08T23:14:27.441Z,15.84
2024-04-08T23:16:53.940Z,15.80
2024-04-08T23:19:20.524Z,15.72
2024-04-08T23:21:47.101Z,15.74
2024-04-08T23:24:13.713Z,15.80
2024-04-08T23:26:40.259Z,15.90
2024-04-08T23:29:06.733Z,15.84
2024-04-08T23:31:33.467Z,15.97
2024-04-08T23:34:00.233Z,16.03
2024-04-08T23:36:26.932Z,16.04
2024-04-08T23:38:53.527Z,16.06
2024-04-08T23:41:20.410Z,16.02
2024-04-08T23:43:47.612Z,16.11
2024-04-08T23:46:14.120Z,16.08
2024-04-08T23:48:40.856Z,16.20
2024-04-08T23:51:08.366Z,16.18
2024-04-08T23:53:34.926Z,16.20
2024-04-08T23:56:01.438Z,16.21
2024-04-08T23:58:27.991Z,16.14
